Terminal Aerodrome Forecast
Issued by NWS Boise, ID

Home | Current Version | Previous Version | Text Only | Print | Product List | Glossary On
Versions: 1 2 3 4 5 6 7 8 9 10 11 12
000
FTUS45 KBOI 211125
TAFBNO
TAF
KBNO 211125Z 2112/2212 VRB05KT P6SM BKN200
     FM212000 15010KT P6SM OVC200
     FM220100 14010KT P6SM BKN150
     FM220900 19012G22KT P6SM OVC150=

USA.gov is the U.S. government's official web portal to all federal, state and local government web resources and services.